createdAt,value
2018-01-02T00:00:36.286Z,93.45
2018-01-02T00:01:38.734Z,92.38
2018-01-02T00:02:41.193Z,92.17
2018-01-02T00:03:43.656Z,92.36
2018-01-02T00:04:46.144Z,92.73
2018-01-02T00:05:48.604Z,92.68
2018-01-02T00:06:51.048Z,92.83
2018-01-02T00:07:53.503Z,93.09
2018-01-02T00:08:55.954Z,93.43
2018-01-02T00:09:58.422Z,93.22
2018-01-02T00:11:00.874Z,93.29
2018-01-02T00:12:03.335Z,92.92
2018-01-02T00:13:05.777Z,92.72
2018-01-02T00:14:08.221Z,92.28
2018-01-02T00:15:10.696Z,92.45
2018-01-02T00:16:13.146Z,92.80
2018-01-02T00:17:15.611Z,92.79
2018-01-02T00:18:18.062Z,93.15
2018-01-02T00:19:20.529Z,93.08
2018-01-02T00:20:23.006Z,92.85
2018-01-02T00:21:25.450Z,92.86
2018-01-02T00:22:27.912Z,92.84
2018-01-02T00:23:30.357Z,92.92
2018-01-02T00:24:32.838Z,92.88
2018-01-02T00:25:35.301Z,93.23
2018-01-02T00:26:37.812Z,93.45
2018-01-02T00:27:40.254Z,93.23
2018-01-02T00:28:42.712Z,92.60
2018-01-02T00:29:45.161Z,92.71
2018-01-02T00:30:47.645Z,92.84
2018-01-02T00:31:50.090Z,93.12
2018-01-02T00:32:52.554Z,92.38
2018-01-02T00:33:54.997Z,92.16
2018-01-02T00:34:57.446Z,92.49
2018-01-02T00:35:59.894Z,92.78
2018-01-02T00:37:02.360Z,92.24
2018-01-02T00:38:04.810Z,91.66
2018-01-02T00:39:07.271Z,91.46
2018-01-02T00:40:09.752Z,91.27
2018-01-02T00:41:12.198Z,91.26
2018-01-02T00:42:14.668Z,91.03
2018-01-02T00:43:17.117Z,90.97
2018-01-02T00:44:19.558Z,91.06
2018-01-02T00:45:22.040Z,90.96
2018-01-02T00:46:24.505Z,91.10
2018-01-02T00:47:26.968Z,91.20
2018-01-02T00:48:29.531Z,91.06
2018-01-02T00:49:31.981Z,91.23
2018-01-02T00:50:34.464Z,90.96
2018-01-02T00:51:36.913Z,91.12
2018-01-02T00:52:39.366Z,90.92
2018-01-02T00:53:41.878Z,91.19
2018-01-02T00:54:44.329Z,91.04
2018-01-02T00:55:46.824Z,90.93
2018-01-02T00:56:49.289Z,91.03
2018-01-02T00:57:51.764Z,90.99
2018-01-02T00:58:54.213Z,91.11
2018-01-02T00:59:56.657Z,91.31
2018-01-02T01:00:59.144Z,91.32
2018-01-02T01:02:01.622Z,91.20
2018-01-02T01:03:04.096Z,91.22
2018-01-02T01:04:06.541Z,91.27
2018-01-02T01:05:08.991Z,91.29
2018-01-02T01:06:11.579Z,91.43
2018-01-02T01:07:14.038Z,91.56
2018-01-02T01:08:16.490Z,91.38
2018-01-02T01:09:18.956Z,91.16
2018-01-02T01:10:21.401Z,91.17
2018-01-02T01:11:23.886Z,91.35
2018-01-02T01:12:26.352Z,91.34
2018-01-02T01:13:28.801Z,91.48
2018-01-02T01:14:31.253Z,91.61
2018-01-02T01:15:33.719Z,91.60
2018-01-02T01:16:36.203Z,91.69
2018-01-02T01:17:38.657Z,91.80
2018-01-02T01:18:41.124Z,91.75
2018-01-02T01:19:43.603Z,91.50
2018-01-02T01:20:46.064Z,91.55
2018-01-02T01:21:48.539Z,91.52
2018-01-02T01:22:51.012Z,91.58
2018-01-02T01:23:53.476Z,91.42
2018-01-02T01:24:55.931Z,91.48
2018-01-02T01:25:58.402Z,91.52
2018-01-02T01:27:00.873Z,91.22
2018-01-02T01:28:03.946Z,91.38
2018-01-02T01:29:06.417Z,91.67
2018-01-02T01:30:08.884Z,91.62
2018-01-02T01:31:11.349Z,91.12
2018-01-02T01:32:13.813Z,91.04
2018-01-02T01:33:16.261Z,91.02
2018-01-02T01:34:18.706Z,91.23
2018-01-02T01:35:21.161Z,90.85
2018-01-02T01:36:23.632Z,90.56
2018-01-02T01:37:26.147Z,90.68
2018-01-02T01:38:28.595Z,90.83
2018-01-02T01:39:31.046Z,91.05
2018-01-02T01:40:33.503Z,90.82
2018-01-02T01:41:35.979Z,91.00
2018-01-02T01:42:38.480Z,91.00
2018-01-02T01:43:40.950Z,91.03
2018-01-02T01:44:43.406Z,90.54
2018-01-02T01:45:45.857Z,90.08
2018-01-02T01:46:48.328Z,89.98
2018-01-02T01:47:50.815Z,90.15
2018-01-02T01:48:55.029Z,90.22
2018-01-02T01:49:57.495Z,89.95
2018-01-02T01:50:59.964Z,90.00
2018-01-02T01:52:02.417Z,90.06
2018-01-02T01:53:04.899Z,90.03
2018-01-02T01:54:07.350Z,89.99
2018-01-02T01:55:09.797Z,90.00
2018-01-02T01:56:12.272Z,90.23
2018-01-02T01:57:14.735Z,90.35
2018-01-02T01:58:17.217Z,90.38
2018-01-02T01:59:19.669Z,90.47
2018-01-02T02:00:22.135Z,90.58
2018-01-02T02:01:24.600Z,90.39
2018-01-02T02:02:27.054Z,90.50
2018-01-02T02:03:29.529Z,90.72
2018-01-02T02:04:32.000Z,90.89
2018-01-02T02:05:34.454Z,91.04
2018-01-02T02:06:36.909Z,90.92
2018-01-02T02:07:39.359Z,90.90
2018-01-02T02:08:41.829Z,90.99
2018-01-02T02:09:44.282Z,91.14
2018-01-02T02:10:46.747Z,91.07
2018-01-02T02:11:49.209Z,90.96
2018-01-02T02:12:51.672Z,91.04
2018-01-02T02:13:54.157Z,90.70
2018-01-02T02:14:56.620Z,90.89
2018-01-02T02:15:59.083Z,90.89
2018-01-02T02:17:01.545Z,90.55
2018-01-02T02:18:04.013Z,90.56
2018-01-02T02:19:06.487Z,90.68
2018-01-02T02:20:08.947Z,90.65
2018-01-02T02:21:11.393Z,90.77
2018-01-02T02:22:13.856Z,90.90
2018-01-02T02:23:16.297Z,90.34
2018-01-02T02:24:18.766Z,90.21
2018-01-02T02:25:21.231Z,90.38
2018-01-02T02:26:23.695Z,90.24
2018-01-02T02:27:26.149Z,90.29
2018-01-02T02:28:28.601Z,90.10
2018-01-02T02:29:31.070Z,90.03
2018-01-02T02:30:33.522Z,89.96
2018-01-02T02:31:35.988Z,89.85
2018-01-02T02:32:38.440Z,89.90
2018-01-02T02:33:40.906Z,89.79
2018-01-02T02:34:43.400Z,89.98
2018-01-02T02:35:45.853Z,90.06
2018-01-02T02:36:48.315Z,90.31
2018-01-02T02:37:50.781Z,89.79
2018-01-02T02:38:53.248Z,90.01
2018-01-02T02:39:55.723Z,90.09
2018-01-02T02:41:06.950Z,90.24
2018-01-02T02:42:09.400Z,90.41
2018-01-02T02:43:11.861Z,90.45
2018-01-02T02:44:14.324Z,90.56
2018-01-02T02:45:16.797Z,90.49
2018-01-02T02:46:19.255Z,90.58
2018-01-02T02:47:21.731Z,90.52
2018-01-02T02:48:24.195Z,90.66
2018-01-02T02:49:26.659Z,90.66
2018-01-02T02:50:29.140Z,90.74
2018-01-02T02:51:31.615Z,90.77
2018-01-02T02:52:34.067Z,90.89
2018-01-02T02:53:36.536Z,91.03
2018-01-02T02:54:39.002Z,91.15
2018-01-02T02:55:41.478Z,91.24
2018-01-02T02:56:43.940Z,91.29
2018-01-02T02:57:46.409Z,91.19
2018-01-02T02:58:48.872Z,91.13
2018-01-02T02:59:51.352Z,91.14
2018-01-02T03:00:53.859Z,91.21
2018-01-02T03:01:56.310Z,90.88
2018-01-02T03:02:58.757Z,90.76
2018-01-02T03:04:01.201Z,90.68
2018-01-02T03:05:03.663Z,90.62
2018-01-02T03:06:06.143Z,90.55
2018-01-02T03:07:08.607Z,90.31
2018-01-02T03:08:11.069Z,90.18
2018-01-02T03:09:13.523Z,90.08
2018-01-02T03:10:15.976Z,90.20
2018-01-02T03:11:18.464Z,90.12
2018-01-02T03:12:20.928Z,89.61
2018-01-02T03:13:23.374Z,89.22
2018-01-02T03:14:25.822Z,89.39
2018-01-02T03:15:28.280Z,89.11
2018-01-02T03:16:30.750Z,89.56
2018-01-02T03:17:33.214Z,89.68
2018-01-02T03:18:35.671Z,89.65
2018-01-02T03:19:38.140Z,89.71
2018-01-02T03:20:40.585Z,89.31
2018-01-02T03:21:43.050Z,89.19
2018-01-02T03:22:45.494Z,89.80
2018-01-02T03:23:47.938Z,89.73
2018-01-02T03:24:50.400Z,89.83
2018-01-02T03:25:52.873Z,89.31
2018-01-02T03:26:55.352Z,89.85
2018-01-02T03:27:57.819Z,90.14
2018-01-02T03:29:00.284Z,90.35
2018-01-02T03:30:02.749Z,90.74
2018-01-02T03:31:05.202Z,91.11
2018-01-02T03:32:07.674Z,91.73
2018-01-02T03:33:10.120Z,91.66
2018-01-02T03:34:12.570Z,91.39
2018-01-02T03:35:15.036Z,91.27
2018-01-02T03:36:17.477Z,91.87
2018-01-02T03:37:19.963Z,92.16
2018-01-02T03:38:22.433Z,92.17
2018-01-02T03:39:24.886Z,92.06
2018-01-02T03:40:27.348Z,91.06
2018-01-02T03:41:29.797Z,91.07
2018-01-02T03:42:32.269Z,91.47
2018-01-02T03:43:34.717Z,91.61
2018-01-02T03:44:37.163Z,91.62
2018-01-02T03:45:39.617Z,91.59
2018-01-02T03:46:42.062Z,91.28
2018-01-02T03:47:44.552Z,91.05
2018-01-02T03:48:46.993Z,90.62
2018-01-02T03:49:49.435Z,91.30
2018-01-02T03:50:51.882Z,91.77
2018-01-02T03:51:54.376Z,91.50
2018-01-02T03:52:56.859Z,91.48
2018-01-02T03:53:59.320Z,92.01
2018-01-02T03:55:01.771Z,92.54
2018-01-02T03:56:04.213Z,93.12
2018-01-02T03:57:06.658Z,93.12
2018-01-02T03:58:09.140Z,93.13
2018-01-02T03:59:11.600Z,93.33
2018-01-02T04:00:14.068Z,93.74
2018-01-02T04:01:16.513Z,93.11
2018-01-02T04:02:18.992Z,92.82
2018-01-02T04:03:21.480Z,93.28
2018-01-02T04:04:24.245Z,93.72
2018-01-02T04:05:26.707Z,92.80
2018-01-02T04:06:29.164Z,92.05
2018-01-02T04:07:31.605Z,90.14
2018-01-02T04:08:34.078Z,90.09
2018-01-02T04:09:36.529Z,90.16
2018-01-02T04:10:38.992Z,90.36
2018-01-02T04:11:41.435Z,90.81
2018-01-02T04:12:43.896Z,90.90
2018-01-02T04:13:46.384Z,91.00
2018-01-02T04:14:48.863Z,91.29
2018-01-02T04:15:51.319Z,91.12
2018-01-02T04:16:53.771Z,91.88
2018-01-02T04:17:56.325Z,92.43
2018-01-02T04:18:58.790Z,92.72
2018-01-02T04:20:01.241Z,93.01
2018-01-02T04:21:03.690Z,93.05
2018-01-02T04:22:06.134Z,92.96
2018-01-02T04:23:08.577Z,92.94
2018-01-02T04:24:11.055Z,92.88
2018-01-02T04:25:13.520Z,92.29
2018-01-02T04:26:15.984Z,91.79
2018-01-02T04:27:18.447Z,91.90
2018-01-02T04:28:20.912Z,92.39
2018-01-02T04:29:23.391Z,92.86
2018-01-02T04:30:25.841Z,93.13
2018-01-02T04:31:28.293Z,92.85
2018-01-02T04:32:30.746Z,92.96
2018-01-02T04:33:33.211Z,92.84
2018-01-02T04:34:35.692Z,92.89
2018-01-02T04:35:38.141Z,92.47
2018-01-02T04:36:40.589Z,92.73
2018-01-02T04:37:43.070Z,93.06
2018-01-02T04:38:45.532Z,93.18
2018-01-02T04:39:48.024Z,93.32
2018-01-02T04:40:50.473Z,93.47
2018-01-02T04:41:52.922Z,93.05
2018-01-02T04:42:55.372Z,92.78
2018-01-02T04:43:57.833Z,92.42
2018-01-02T04:45:00.309Z,92.49
2018-01-02T04:46:02.758Z,92.65
2018-01-02T04:47:05.201Z,92.85
2018-01-02T04:48:07.649Z,92.70
2018-01-02T04:49:10.113Z,92.09
2018-01-02T04:50:12.578Z,91.77
2018-01-02T04:51:15.044Z,91.91
2018-01-02T04:52:17.493Z,92.00
2018-01-02T04:53:19.939Z,92.43
2018-01-02T04:54:22.382Z,92.73
2018-01-02T04:55:24.859Z,92.98
2018-01-02T04:56:27.343Z,91.95
2018-01-02T04:57:29.804Z,91.58
2018-01-02T04:58:32.268Z,91.57
2018-01-02T04:59:34.728Z,91.57
2018-01-02T05:00:37.220Z,91.68
2018-01-02T05:01:39.684Z,91.96
2018-01-02T05:02:42.152Z,91.97
2018-01-02T05:03:44.594Z,92.26
2018-01-02T05:04:47.069Z,92.51
2018-01-02T05:05:49.537Z,91.79
2018-01-02T05:06:52.008Z,91.34
2018-01-02T05:07:54.462Z,91.36
2018-01-02T05:08:56.905Z,91.01
2018-01-02T05:09:59.349Z,91.24
2018-01-02T05:11:01.828Z,90.63
2018-01-02T05:12:04.282Z,90.44
2018-01-02T05:13:06.748Z,90.87
2018-01-02T05:14:09.194Z,90.99
2018-01-02T05:15:11.655Z,90.95
2018-01-02T05:16:14.130Z,91.23
2018-01-02T05:17:16.591Z,90.91
2018-01-02T05:18:19.038Z,91.07
2018-01-02T05:19:21.511Z,91.32
2018-01-02T05:20:23.975Z,90.84
2018-01-02T05:21:26.461Z,90.95
2018-01-02T05:22:28.906Z,91.08
2018-01-02T05:23:31.345Z,91.22
2018-01-02T05:24:33.812Z,91.28
2018-01-02T05:25:36.273Z,91.14
2018-01-02T05:26:38.737Z,91.10
2018-01-02T05:27:41.204Z,91.15
2018-01-02T05:28:43.667Z,91.65
2018-01-02T05:29:46.114Z,92.18
2018-01-02T05:30:48.557Z,92.42
2018-01-02T05:31:51.022Z,92.19
2018-01-02T05:32:53.466Z,91.95
2018-01-02T05:33:55.932Z,92.25
2018-01-02T05:34:58.396Z,92.59
2018-01-02T05:36:00.861Z,92.44
2018-01-02T05:37:03.329Z,92.34
2018-01-02T05:38:05.792Z,92.72
2018-01-02T05:39:08.252Z,92.74
2018-01-02T05:40:10.698Z,92.80
2018-01-02T05:41:13.154Z,92.63
2018-01-02T05:42:15.632Z,92.35
2018-01-02T05:43:18.081Z,92.71
2018-01-02T05:44:20.540Z,93.04
2018-01-02T05:45:22.981Z,92.75
2018-01-02T05:46:25.452Z,92.79
2018-01-02T05:47:27.919Z,92.89
2018-01-02T05:48:30.370Z,93.08
2018-01-02T05:49:32.814Z,92.71
2018-01-02T05:50:35.275Z,92.98
2018-01-02T05:51:37.739Z,93.04
2018-01-02T05:52:40.224Z,93.03
2018-01-02T05:53:42.671Z,93.00
2018-01-02T05:54:45.131Z,93.25
2018-01-02T05:55:47.592Z,93.38
2018-01-02T05:56:50.058Z,93.15
2018-01-02T05:57:52.564Z,93.07
2018-01-02T05:58:55.014Z,92.27
2018-01-02T05:59:57.483Z,92.10
2018-01-02T06:00:59.929Z,91.91
2018-01-02T06:02:02.392Z,92.21
2018-01-02T06:03:04.858Z,92.69
2018-01-02T06:04:07.302Z,92.86
2018-01-02T06:05:09.760Z,92.24
2018-01-02T06:06:12.608Z,92.18
2018-01-02T06:07:15.072Z,92.33
2018-01-02T06:08:17.592Z,92.13
2018-01-02T06:09:20.046Z,92.64
2018-01-02T06:10:22.494Z,92.86
2018-01-02T06:11:24.946Z,92.52
2018-01-02T06:12:27.397Z,92.73
2018-01-02T06:13:29.880Z,92.83
2018-01-02T06:14:32.334Z,92.80
2018-01-02T06:15:34.812Z,92.84
2018-01-02T06:16:37.276Z,92.83
2018-01-02T06:17:39.725Z,92.92
2018-01-02T06:18:42.207Z,92.69
2018-01-02T06:19:44.676Z,92.65
2018-01-02T06:20:47.140Z,93.00
2018-01-02T06:21:49.594Z,93.25
2018-01-02T06:22:52.060Z,93.20
2018-01-02T06:23:54.535Z,93.19
2018-01-02T06:24:57.016Z,92.55
2018-01-02T06:25:59.485Z,92.74
2018-01-02T06:27:01.984Z,92.43
2018-01-02T06:28:04.439Z,92.57
2018-01-02T06:29:06.902Z,92.95
2018-01-02T06:30:09.354Z,93.10
2018-01-02T06:31:11.829Z,92.75
2018-01-02T06:32:14.292Z,92.39
2018-01-02T06:33:16.756Z,92.34
2018-01-02T06:34:19.249Z,91.97
2018-01-02T06:35:21.716Z,92.40
2018-01-02T06:36:24.169Z,91.55
2018-01-02T06:37:26.639Z,91.13
2018-01-02T06:38:29.105Z,91.86
2018-01-02T06:39:31.578Z,92.41
2018-01-02T06:40:34.032Z,92.12
2018-01-02T06:41:36.505Z,91.93
2018-01-02T06:42:38.950Z,91.91
2018-01-02T06:43:41.459Z,92.07
2018-01-02T06:44:43.934Z,91.80
2018-01-02T06:45:46.399Z,91.48
2018-01-02T06:46:48.868Z,91.83
2018-01-02T06:47:51.332Z,92.11
2018-01-02T06:48:53.782Z,92.24
2018-01-02T06:49:56.264Z,91.90
2018-01-02T06:50:58.724Z,91.35
2018-01-02T06:52:01.173Z,91.58
2018-01-02T06:53:03.626Z,90.99
2018-01-02T06:54:06.082Z,90.53
2018-01-02T06:55:08.550Z,90.81
2018-01-02T06:56:11.007Z,91.46
2018-01-02T06:57:13.469Z,91.33
2018-01-02T06:58:15.933Z,91.01
2018-01-02T06:59:18.382Z,91.03
2018-01-02T07:00:20.885Z,90.55
2018-01-02T07:01:23.350Z,90.94
2018-01-02T07:02:25.855Z,90.81
2018-01-02T07:03:28.298Z,90.74
2018-01-02T07:04:30.763Z,91.20
2018-01-02T07:05:33.246Z,91.04
2018-01-02T07:06:35.703Z,91.39
2018-01-02T07:07:38.172Z,91.52
2018-01-02T07:08:40.632Z,91.72
2018-01-02T07:09:43.082Z,91.94
2018-01-02T07:10:45.552Z,91.93
2018-01-02T07:11:48.014Z,92.10
2018-01-02T07:12:50.457Z,91.73
2018-01-02T07:13:52.907Z,91.54
2018-01-02T07:14:55.380Z,90.94
2018-01-02T07:15:57.862Z,90.91
2018-01-02T07:17:00.336Z,90.74
2018-01-02T07:18:03.530Z,90.24
2018-01-02T07:19:05.978Z,90.96
2018-01-02T07:20:08.440Z,91.12
2018-01-02T07:21:10.987Z,90.70
2018-01-02T07:22:13.450Z,90.08
2018-01-02T07:23:15.915Z,90.45
2018-01-02T07:24:18.376Z,91.17
2018-01-02T07:25:21.352Z,91.62
2018-01-02T07:26:23.840Z,91.88
2018-01-02T07:27:26.285Z,92.23
2018-01-02T07:28:28.743Z,92.20
2018-01-02T07:29:31.204Z,91.32
2018-01-02T07:30:33.672Z,90.98
2018-01-02T07:31:36.137Z,90.49
2018-01-02T07:32:38.657Z,90.50
2018-01-02T07:33:41.120Z,90.54
2018-01-02T07:34:43.684Z,90.93
2018-01-02T07:35:46.223Z,91.14
2018-01-02T07:36:48.697Z,91.50
2018-01-02T07:37:51.168Z,91.73
2018-01-02T07:38:53.627Z,91.63
2018-01-02T07:39:56.092Z,91.79
2018-01-02T07:40:58.542Z,91.88
2018-01-02T07:42:01.024Z,92.46
2018-01-02T07:43:03.488Z,92.06
2018-01-02T07:44:05.942Z,91.91
2018-01-02T07:45:08.393Z,91.63
2018-01-02T07:46:10.842Z,91.09
2018-01-02T07:47:13.372Z,91.14
2018-01-02T07:48:15.833Z,91.23
2018-01-02T07:49:18.294Z,91.33
2018-01-02T07:50:20.764Z,91.30
2018-01-02T07:51:23.231Z,91.19
2018-01-02T07:52:25.701Z,90.78
2018-01-02T07:53:28.149Z,90.25
2018-01-02T07:54:30.626Z,90.23
2018-01-02T07:55:33.096Z,90.08
2018-01-02T07:56:35.567Z,89.92
2018-01-02T07:57:38.056Z,89.66
2018-01-02T07:58:40.515Z,89.55
2018-01-02T07:59:43.068Z,89.19
2018-01-02T08:00:45.522Z,88.60
2018-01-02T08:01:47.992Z,88.84
2018-01-02T08:02:50.472Z,88.71
2018-01-02T08:03:52.944Z,88.94
2018-01-02T08:04:55.420Z,89.51
2018-01-02T08:05:57.887Z,89.58
2018-01-02T08:07:00.348Z,88.68
2018-01-02T08:08:02.837Z,88.87
2018-01-02T08:09:05.309Z,88.50
2018-01-02T08:10:07.763Z,88.33
2018-01-02T08:11:10.231Z,88.38
2018-01-02T08:12:12.697Z,88.14
2018-01-02T08:13:15.173Z,88.30
2018-01-02T08:14:17.683Z,87.93
2018-01-02T08:15:20.145Z,88.10
2018-01-02T08:16:22.602Z,88.32
2018-01-02T08:17:25.089Z,88.52
2018-01-02T08:18:27.596Z,88.07
2018-01-02T08:19:30.076Z,88.12
2018-01-02T08:20:32.560Z,87.95
2018-01-02T08:21:35.036Z,87.47
2018-01-02T08:22:37.506Z,87.70
2018-01-02T08:23:39.999Z,86.49
2018-01-02T08:24:42.453Z,86.53
2018-01-02T08:25:44.944Z,86.56
2018-01-02T08:26:47.408Z,86.53
2018-01-02T08:27:49.862Z,89.06
2018-01-02T08:28:52.335Z,86.16
2018-01-02T08:29:54.824Z,85.88
2018-01-02T08:30:57.282Z,86.23
2018-01-02T08:31:59.739Z,85.29
2018-01-02T08:33:02.202Z,85.48
2018-01-02T08:34:04.678Z,85.30
2018-01-02T08:35:07.134Z,85.77
2018-01-02T08:36:09.599Z,84.65
2018-01-02T08:37:12.074Z,84.95
2018-01-02T08:38:14.522Z,84.48
2018-01-02T08:39:17.003Z,84.35
2018-01-02T08:40:19.464Z,84.23
2018-01-02T08:41:21.935Z,83.15
2018-01-02T08:42:24.396Z,83.71
2018-01-02T08:43:26.860Z,83.45
2018-01-02T08:44:29.348Z,83.32
2018-01-02T08:45:31.821Z,83.24
2018-01-02T08:46:34.285Z,82.72
2018-01-02T08:47:36.754Z,82.02
2018-01-02T08:48:39.215Z,81.96
2018-01-02T08:49:41.695Z,82.48
2018-01-02T08:50:44.151Z,81.65
2018-01-02T08:51:46.602Z,81.20
2018-01-02T08:52:49.069Z,81.85
2018-01-02T08:53:51.539Z,81.82
2018-01-02T08:54:54.036Z,81.51
2018-01-02T08:55:56.485Z,81.17
2018-01-02T08:56:58.956Z,81.07
2018-01-02T08:58:01.691Z,81.70
2018-01-02T08:59:04.201Z,82.23
2018-01-02T09:00:06.674Z,82.02
2018-01-02T09:01:09.151Z,81.89
2018-01-02T09:02:11.672Z,81.35
2018-01-02T09:03:14.136Z,81.55
2018-01-02T09:04:16.600Z,81.98
2018-01-02T09:05:19.070Z,80.39
2018-01-02T09:06:21.543Z,80.80
2018-01-02T09:07:24.004Z,81.58
2018-01-02T09:08:26.467Z,81.25
2018-01-02T09:09:28.927Z,80.62
2018-01-02T09:10:31.412Z,80.59
2018-01-02T09:11:33.857Z,80.69
2018-01-02T09:12:48.928Z,81.74
2018-01-02T09:13:57.110Z,79.64
2018-01-02T09:14:59.558Z,80.42
2018-01-02T09:16:02.030Z,81.03
2018-01-02T09:17:04.495Z,80.71
2018-01-02T09:18:06.959Z,80.42
2018-01-02T09:19:09.413Z,81.58
2018-01-02T09:20:11.876Z,81.11
2018-01-02T09:21:14.340Z,80.37
2018-01-02T09:22:16.789Z,80.26
2018-01-02T09:23:19.239Z,79.38
2018-01-02T09:24:21.706Z,78.94
2018-01-02T09:25:24.173Z,78.92
2018-01-02T09:26:26.635Z,78.92
2018-01-02T09:27:29.104Z,79.86
2018-01-02T09:28:31.549Z,79.10
2018-01-02T09:29:33.998Z,78.95
2018-01-02T09:30:36.459Z,79.25
2018-01-02T09:31:38.914Z,80.29
2018-01-02T09:32:41.380Z,78.88
2018-01-02T09:33:43.829Z,78.35
2018-01-02T09:34:46.282Z,78.69
2018-01-02T09:35:48.738Z,77.23
2018-01-02T09:36:51.190Z,77.92
2018-01-02T09:37:53.639Z,77.09
2018-01-02T09:38:56.105Z,77.24
2018-01-02T09:39:58.558Z,77.50
2018-01-02T09:41:01.028Z,77.85
2018-01-02T09:42:03.506Z,79.14
2018-01-02T09:43:05.977Z,78.60
2018-01-02T09:44:08.444Z,78.08
2018-01-02T09:45:10.894Z,78.14
2018-01-02T09:46:13.361Z,77.96
2018-01-02T09:47:15.817Z,79.23
2018-01-02T09:48:18.265Z,78.97
2018-01-02T09:49:20.730Z,79.85
2018-01-02T09:50:23.194Z,77.81
2018-01-02T09:51:25.663Z,78.51
2018-01-02T09:52:28.157Z,79.76
2018-01-02T09:53:30.637Z,79.76
2018-01-02T09:54:33.100Z,79.70
2018-01-02T09:55:35.550Z,78.88
2018-01-02T09:56:38.166Z,80.07
2018-01-02T09:57:40.628Z,79.80
2018-01-02T09:58:43.120Z,80.49
2018-01-02T09:59:45.584Z,80.11
2018-01-02T10:00:48.047Z,80.26
2018-01-02T10:01:50.516Z,80.69
2018-01-02T10:02:52.981Z,81.49
2018-01-02T10:03:55.439Z,82.24
2018-01-02T10:04:57.912Z,81.81
2018-01-02T10:06:00.365Z,81.75
2018-01-02T10:07:02.832Z,81.76
2018-01-02T10:08:05.278Z,81.85
2018-01-02T10:09:10.132Z,82.10
2018-01-02T10:10:12.586Z,81.43
2018-01-02T10:11:15.038Z,81.73
2018-01-02T10:12:17.493Z,82.07
2018-01-02T10:13:19.972Z,82.67
2018-01-02T10:14:22.430Z,81.99
2018-01-02T10:15:24.898Z,81.79
2018-01-02T10:16:27.364Z,81.78
2018-01-02T10:17:29.818Z,82.21
2018-01-02T10:18:32.278Z,81.85
2018-01-02T10:19:34.739Z,81.91
2018-01-02T10:20:37.214Z,81.60
2018-01-02T10:21:39.673Z,81.22
2018-01-02T10:22:42.114Z,80.82
2018-01-02T10:23:44.566Z,80.33
2018-01-02T10:24:47.013Z,80.54
2018-01-02T10:25:49.476Z,80.20
2018-01-02T10:26:51.934Z,80.01
2018-01-02T10:27:54.390Z,80.38
2018-01-02T10:28:56.864Z,79.11
2018-01-02T10:29:59.328Z,79.55
2018-01-02T10:31:01.788Z,80.28
2018-01-02T10:32:04.256Z,80.25
2018-01-02T10:33:06.710Z,81.29
2018-01-02T10:34:09.181Z,82.15
2018-01-02T10:35:11.688Z,82.22
2018-01-02T10:36:14.148Z,81.93
2018-01-02T10:37:17.014Z,82.04
2018-01-02T10:38:19.483Z,82.37
2018-01-02T10:39:21.936Z,81.43
2018-01-02T10:40:24.390Z,81.38
2018-01-02T10:41:26.860Z,81.79
2018-01-02T10:42:29.328Z,80.86
2018-01-02T10:43:31.800Z,81.00
2018-01-02T10:44:34.249Z,81.18
2018-01-02T10:45:36.714Z,80.87
2018-01-02T10:46:39.261Z,81.46
2018-01-02T10:47:41.728Z,81.26
2018-01-02T10:48:44.178Z,81.70
2018-01-02T10:49:46.716Z,81.15
2018-01-02T10:50:49.190Z,79.56
2018-01-02T10:51:51.638Z,79.54
2018-01-02T10:52:54.094Z,79.83
2018-01-02T10:53:56.546Z,79.55
2018-01-02T10:54:59.002Z,78.84
2018-01-02T10:56:01.458Z,79.19
2018-01-02T10:57:03.914Z,78.85
2018-01-02T10:58:06.361Z,79.56
2018-01-02T10:59:08.814Z,80.16
2018-01-02T11:00:11.280Z,80.54
2018-01-02T11:01:19.448Z,79.84
2018-01-02T11:02:21.901Z,80.31
2018-01-02T11:03:24.354Z,80.12
2018-01-02T11:04:26.825Z,80.56
2018-01-02T11:05:29.274Z,80.87
2018-01-02T11:06:31.742Z,80.82
2018-01-02T11:07:34.243Z,80.45
2018-01-02T11:08:36.707Z,80.42
2018-01-02T11:09:39.172Z,80.39
2018-01-02T11:10:44.396Z,80.47
2018-01-02T11:11:52.505Z,80.76
2018-01-02T11:12:54.966Z,80.20
2018-01-02T11:13:57.480Z,80.16
2018-01-02T11:14:59.944Z,80.10
2018-01-02T11:16:02.420Z,78.73
2018-01-02T11:17:04.874Z,79.10
2018-01-02T11:18:07.364Z,79.75
2018-01-02T11:19:09.814Z,79.44
2018-01-02T11:20:12.262Z,78.63
2018-01-02T11:21:14.728Z,78.55
2018-01-02T11:22:17.191Z,78.40
2018-01-02T11:23:19.668Z,78.79
2018-01-02T11:24:22.131Z,78.61
2018-01-02T11:25:24.594Z,78.18
2018-01-02T11:26:27.046Z,78.17
2018-01-02T11:27:29.508Z,77.80
2018-01-02T11:28:31.983Z,78.34
2018-01-02T11:29:34.456Z,77.70
2018-01-02T11:30:36.923Z,77.45
2018-01-02T11:31:41.168Z,77.74
2018-01-02T11:32:43.622Z,78.46
2018-01-02T11:33:46.085Z,77.28
2018-01-02T11:34:48.534Z,76.45
2018-01-02T11:35:52.173Z,77.22
2018-01-02T11:36:54.899Z,75.72
2018-01-02T11:37:57.382Z,75.73
2018-01-02T11:38:59.857Z,75.87
2018-01-02T11:40:02.325Z,75.35
2018-01-02T11:41:04.782Z,76.09
2018-01-02T11:42:07.234Z,76.51
2018-01-02T11:43:09.701Z,76.73
2018-01-02T11:44:12.174Z,75.85
2018-01-02T11:45:14.671Z,75.87
2018-01-02T11:46:17.143Z,75.19
2018-01-02T11:47:19.611Z,75.68
2018-01-02T11:48:22.076Z,76.18
2018-01-02T11:49:24.552Z,76.14
2018-01-02T11:50:27.072Z,76.10
2018-01-02T11:51:29.550Z,76.77
2018-01-02T11:52:32.037Z,76.55
2018-01-02T11:53:34.501Z,76.48
2018-01-02T11:54:36.971Z,76.69
2018-01-02T11:55:39.425Z,76.39
2018-01-02T11:56:41.878Z,76.58
2018-01-02T11:57:44.343Z,76.95
2018-01-02T11:58:46.816Z,77.02
2018-01-02T11:59:49.266Z,77.47
2018-01-02T12:00:51.938Z,76.86
2018-01-02T12:01:54.696Z,77.99
2018-01-02T12:02:57.760Z,77.20
2018-01-02T12:04:00.221Z,77.21
2018-01-02T12:05:02.703Z,76.63
2018-01-02T12:06:05.186Z,76.95
2018-01-02T12:07:07.660Z,76.65
2018-01-02T12:08:10.124Z,75.99
2018-01-02T12:09:12.595Z,76.40
2018-01-02T12:10:15.037Z,76.87
2018-01-02T12:11:17.559Z,76.17
2018-01-02T12:12:20.028Z,75.79
2018-01-02T12:13:22.531Z,76.03
2018-01-02T12:14:25.029Z,75.09
2018-01-02T12:15:27.496Z,74.96
2018-01-02T12:16:30.036Z,75.58
2018-01-02T12:17:32.504Z,74.75
2018-01-02T12:18:34.967Z,74.61
2018-01-02T12:19:37.430Z,74.16
2018-01-02T12:20:39.916Z,74.87
2018-01-02T12:21:42.384Z,75.28
2018-01-02T12:22:44.840Z,74.55
2018-01-02T12:23:47.285Z,74.35
2018-01-02T12:24:49.752Z,74.53
2018-01-02T12:25:52.257Z,74.47
2018-01-02T12:26:54.733Z,74.42
2018-01-02T12:27:57.186Z,74.51
2018-01-02T12:28:59.634Z,73.59
2018-01-02T12:30:02.112Z,74.41
2018-01-02T12:31:04.592Z,73.93
2018-01-02T12:32:07.045Z,74.08
2018-01-02T12:33:09.592Z,73.98
2018-01-02T12:34:12.054Z,73.59
2018-01-02T12:35:14.514Z,73.91
2018-01-02T12:36:16.958Z,73.85
2018-01-02T12:37:19.420Z,72.88
2018-01-02T12:38:21.959Z,72.99
2018-01-02T12:39:24.454Z,72.88
2018-01-02T12:40:26.935Z,72.78
2018-01-02T12:41:29.382Z,72.62
2018-01-02T12:42:31.834Z,73.09
2018-01-02T12:43:34.286Z,72.63
2018-01-02T12:44:36.729Z,71.59
2018-01-02T12:45:39.196Z,72.14
2018-01-02T12:46:41.678Z,71.53
2018-01-02T12:47:44.154Z,72.15
2018-01-02T12:48:46.667Z,72.82
2018-01-02T12:49:49.114Z,72.99
2018-01-02T12:50:51.580Z,72.64
2018-01-02T12:51:54.039Z,72.67
2018-01-02T12:52:56.505Z,72.98
2018-01-02T12:53:58.967Z,72.89
2018-01-02T12:55:01.436Z,72.03
2018-01-02T12:56:03.895Z,71.21
2018-01-02T12:57:06.352Z,71.32
2018-01-02T12:58:08.826Z,71.27
2018-01-02T12:59:11.274Z,71.83
2018-01-02T13:00:13.744Z,70.91
2018-01-02T13:01:16.216Z,71.05
2018-01-02T13:02:18.698Z,71.29
2018-01-02T13:03:21.179Z,71.07
2018-01-02T13:04:23.630Z,70.93
2018-01-02T13:05:26.079Z,71.43
2018-01-02T13:06:28.983Z,71.45
2018-01-02T13:07:31.484Z,70.54
2018-01-02T13:08:33.948Z,71.33
2018-01-02T13:09:36.398Z,71.32
2018-01-02T13:10:38.887Z,70.96
2018-01-02T13:11:41.348Z,70.81
2018-01-02T13:12:43.812Z,70.54
2018-01-02T13:13:46.331Z,69.91
2018-01-02T13:14:48.848Z,70.49
2018-01-02T13:15:51.345Z,70.74
2018-01-02T13:16:53.794Z,71.13
2018-01-02T13:17:56.256Z,71.05
2018-01-02T13:18:58.729Z,71.24
2018-01-02T13:20:01.465Z,70.62
2018-01-02T13:21:03.938Z,70.39
2018-01-02T13:22:06.403Z,70.47
2018-01-02T13:23:08.859Z,70.77
2018-01-02T13:24:11.309Z,70.31
2018-01-02T13:25:13.774Z,69.74